Time;durP1;ratioP1;P1;durP2;ratioP2;P2;SDS_P1;SDS_P2;PMS_P1;PMS_P2;Temp;Humidity;BMP_temperature;BMP_pressure;BME280_temperature;BME280_humidity;BME280_pressure;Samples;Min_cycle;Max_cycle;Signal;HPM_P1;HPM_P2
2023/05/13 00:02:07;;;;;;;15.60;6.78;;;;;;;;;;4991033;28;20026;-67
2023/05/13 00:04:32;;;;;;;17.67;7.15;;;;;;;;;;5000150;28;20670;-69
2023/05/13 00:06:57;;;;;;;12.68;7.00;;;;;;;;;;4991298;28;20023;-70
2023/05/13 00:09:23;;;;;;;13.38;6.78;;;;;;;;;;4991379;28;20149;-69
2023/05/13 00:11:48;;;;;;;13.10;6.85;;;;;;;;;;4991110;28;20034;-67
2023/05/13 00:14:13;;;;;;;12.07;6.88;;;;;;;;;;4991405;28;20081;-69
2023/05/13 00:16:38;;;;;;;15.88;7.35;;;;;;;;;;4991668;28;20052;-68
2023/05/13 00:19:04;;;;;;;13.10;6.53;;;;;;;;;;4982805;28;20559;-68
2023/05/13 00:21:29;;;;;;;14.35;6.93;;;;;;;;;;4991296;28;20531;-67
2023/05/13 00:23:54;;;;;;;11.45;6.70;;;;;;;;;;4991096;28;20114;-68
2023/05/13 00:26:20;;;;;;;14.40;6.57;;;;;;;;;;4990915;28;20098;-68
2023/05/13 00:28:45;;;;;;;11.85;6.22;;;;;;;;;;4995512;28;20047;-68
2023/05/13 00:31:11;;;;;;;13.55;6.68;;;;;;;;;;4990576;28;20022;-69
2023/05/13 00:33:36;;;;;;;14.25;6.55;;;;;;;;;;4991237;28;20054;-70
2023/05/13 00:36:01;;;;;;;11.80;6.57;;;;;;;;;;4993273;28;20097;-69
2023/05/13 00:38:27;;;;;;;11.07;6.53;;;;;;;;;;4999739;28;20030;-68
2023/05/13 00:40:52;;;;;;;15.43;7.20;;;;;;;;;;4990341;28;20018;-69
2023/05/13 00:43:17;;;;;;;12.60;6.63;;;;;;;;;;5002604;28;20018;-69
2023/05/13 00:45:42;;;;;;;12.60;6.60;;;;;;;;;;4992477;28;20102;-69
2023/05/13 00:48:08;;;;;;;12.48;6.82;;;;;;;;;;5000707;28;20073;-65
2023/05/13 00:50:34;;;;;;;14.77;5.85;;;;;;;;;;4990385;28;20048;-67
2023/05/13 00:52:59;;;;;;;8.55;5.47;;;;;;;;;;4990352;28;20427;-68
2023/05/13 00:55:25;;;;;;;15.50;5.68;;;;;;;;;;4990217;28;20037;-67
2023/05/13 00:57:50;;;;;;;10.60;5.97;;;;;;;;;;4990481;28;20570;-68
2023/05/13 01:00:16;;;;;;;9.55;5.88;;;;;;;;;;4989818;28;20032;-68
2023/05/13 01:02:44;;;;;;;11.30;6.30;;;;;;;;;;5029555;22;20046;-64
2023/05/13 01:05:12;;;;;;;13.23;6.70;;;;;;;;;;5036716;28;20458;-62
2023/05/13 01:07:38;;;;;;;14.38;6.50;;;;;;;;;;5011389;28;20025;-63
2023/05/13 01:10:22;;;;;;;12.27;6.55;;;;;;;;;;5030102;28;20017;-59
2023/05/13 01:12:48;;;;;;;10.80;6.88;;;;;;;;;;5014506;28;20415;-62
2023/05/13 01:15:16;;;;;;;14.65;7.10;;;;;;;;;;5009500;28;20026;-65
2023/05/13 01:17:41;;;;;;;15.00;6.63;;;;;;;;;;5009748;28;20029;-63
2023/05/13 01:20:07;;;;;;;14.88;7.13;;;;;;;;;;5009847;28;20033;-62
2023/05/13 01:22:32;;;;;;;10.55;6.55;;;;;;;;;;5009551;28;20496;-64
2023/05/13 01:24:57;;;;;;;11.60;6.15;;;;;;;;;;5009817;28;20025;-61
2023/05/13 01:27:23;;;;;;;16.17;6.85;;;;;;;;;;5010037;28;20399;-63
2023/05/13 01:29:49;;;;;;;11.60;6.78;;;;;;;;;;5018467;28;20080;-64
2023/05/13 01:32:14;;;;;;;17.42;7.60;;;;;;;;;;5009837;28;20040;-64
2023/05/13 01:34:40;;;;;;;11.68;6.65;;;;;;;;;;5010315;28;20416;-63
2023/05/13 01:37:06;;;;;;;10.98;7.07;;;;;;;;;;5010152;28;20053;-63
2023/05/13 01:39:31;;;;;;;13.18;6.50;;;;;;;;;;5010364;28;20014;-64
2023/05/13 01:41:56;;;;;;;10.90;6.47;;;;;;;;;;5016125;28;20097;-63
2023/05/13 01:44:22;;;;;;;20.13;7.32;;;;;;;;;;5023777;28;20434;-63
2023/05/13 01:46:49;;;;;;;13.27;7.18;;;;;;;;;;5014913;28;20030;-64
2023/05/13 01:49:14;;;;;;;12.93;7.25;;;;;;;;;;5013633;28;20511;-62
2023/05/13 01:51:40;;;;;;;10.77;6.82;;;;;;;;;;5016088;28;20056;-63
2023/05/13 01:54:05;;;;;;;12.65;7.35;;;;;;;;;;5013375;28;20037;-64
2023/05/13 01:56:31;;;;;;;14.35;6.68;;;;;;;;;;5013670;28;20025;-63
2023/05/13 01:58:56;;;;;;;13.13;6.72;;;;;;;;;;5010327;28;20511;-62
2023/05/13 02:01:21;;;;;;;10.90;6.80;;;;;;;;;;5020383;28;20075;-64
2023/05/13 02:03:46;;;;;;;10.95;6.70;;;;;;;;;;5014635;28;20037;-62
2023/05/13 02:06:12;;;;;;;11.30;6.53;;;;;;;;;;5013576;28;20014;-64
2023/05/13 02:08:37;;;;;;;11.82;6.70;;;;;;;;;;5013284;28;20029;-64
2023/05/13 02:11:02;;;;;;;12.05;6.65;;;;;;;;;;5013343;28;20037;-63
2023/05/13 02:13:27;;;;;;;13.82;6.70;;;;;;;;;;5013192;28;20491;-64
2023/05/13 02:15:53;;;;;;;14.60;6.72;;;;;;;;;;5013033;28;20072;-63
2023/05/13 02:18:19;;;;;;;10.73;5.90;;;;;;;;;;5013375;28;20030;-64
2023/05/13 02:20:44;;;;;;;9.90;6.25;;;;;;;;;;5013731;28;20030;-64
2023/05/13 02:23:10;;;;;;;9.35;6.05;;;;;;;;;;5024862;28;20093;-64
2023/05/13 02:25:35;;;;;;;9.95;6.50;;;;;;;;;;5017437;28;20022;-62
2023/05/13 02:28:00;;;;;;;19.88;7.15;;;;;;;;;;5014144;28;20558;-66
2023/05/13 02:30:26;;;;;;;11.23;5.95;;;;;;;;;;5022517;28;20383;-63
2023/05/13 02:32:52;;;;;;;13.85;5.95;;;;;;;;;;5014778;28;20632;-63
2023/05/13 02:35:17;;;;;;;9.38;5.88;;;;;;;;;;5013159;28;20021;-63
2023/05/13 02:37:42;;;;;;;10.07;5.68;;;;;;;;;;5012725;28;20026;-61
2023/05/13 02:40:08;;;;;;;11.25;6.35;;;;;;;;;;5013004;28;20376;-64
2023/05/13 02:42:33;;;;;;;10.68;5.82;;;;;;;;;;5018518;28;20640;-64
2023/05/13 02:44:59;;;;;;;9.68;6.40;;;;;;;;;;5005003;28;20044;-64
2023/05/13 02:47:24;;;;;;;11.60;6.05;;;;;;;;;;5013110;28;20184;-62
2023/05/13 02:49:49;;;;;;;11.18;6.15;;;;;;;;;;5013628;28;20029;-64
2023/05/13 02:52:14;;;;;;;10.40;6.05;;;;;;;;;;5013457;28;20018;-63
2023/05/13 02:54:39;;;;;;;17.42;6.95;;;;;;;;;;5013579;28;20026;-63
2023/05/13 02:57:05;;;;;;;14.45;6.57;;;;;;;;;;5016601;28;20068;-63
2023/05/13 02:59:30;;;;;;;12.02;6.35;;;;;;;;;;5012974;28;20030;-64
2023/05/13 03:01:55;;;;;;;11.50;6.68;;;;;;;;;;5012772;28;20117;-63
2023/05/13 03:04:21;;;;;;;12.05;6.90;;;;;;;;;;5012399;28;20105;-61
2023/05/13 03:06:46;;;;;;;9.68;6.43;;;;;;;;;;5012014;28;20056;-62
2023/05/13 03:09:11;;;;;;;13.65;7.55;;;;;;;;;;5012438;28;20052;-62
2023/05/13 03:11:36;;;;;;;10.38;6.47;;;;;;;;;;5012457;28;20110;-63
2023/05/13 03:14:02;;;;;;;13.35;6.50;;;;;;;;;;5012165;28;20097;-63
2023/05/13 03:16:27;;;;;;;12.88;7.00;;;;;;;;;;5012569;28;20088;-64
2023/05/13 03:18:52;;;;;;;14.15;6.60;;;;;;;;;;5013260;28;20622;-62
2023/05/13 03:21:17;;;;;;;13.68;6.55;;;;;;;;;;5014597;28;20018;-64
2023/05/13 03:23:42;;;;;;;12.38;6.07;;;;;;;;;;4994312;28;20041;-61
2023/05/13 03:26:08;;;;;;;13.77;7.10;;;;;;;;;;5012100;28;20018;-64
2023/05/13 03:28:33;;;;;;;15.48;7.03;;;;;;;;;;5017649;28;20541;-63
2023/05/13 03:30:58;;;;;;;10.98;6.85;;;;;;;;;;5015931;28;20520;-64
2023/05/13 03:33:23;;;;;;;13.32;7.10;;;;;;;;;;5018769;28;20022;-63
2023/05/13 03:35:49;;;;;;;13.07;7.18;;;;;;;;;;5016237;28;20079;-63
2023/05/13 03:38:14;;;;;;;13.43;6.60;;;;;;;;;;4994154;28;20467;-64
2023/05/13 03:40:40;;;;;;;11.65;6.78;;;;;;;;;;5011983;28;20036;-63
2023/05/13 03:43:05;;;;;;;13.73;6.50;;;;;;;;;;5021576;28;20032;-64
2023/05/13 03:45:30;;;;;;;11.93;7.03;;;;;;;;;;5014873;28;20018;-64
2023/05/13 03:47:56;;;;;;;11.40;6.35;;;;;;;;;;5011588;28;20034;-65
2023/05/13 03:50:21;;;;;;;13.75;7.18;;;;;;;;;;5011493;28;20040;-63
2023/05/13 03:52:46;;;;;;;17.70;7.22;;;;;;;;;;5010966;28;20438;-64
2023/05/13 03:55:13;;;;;;;18.33;7.93;;;;;;;;;;4998798;28;20075;-63
2023/05/13 03:57:38;;;;;;;16.70;7.30;;;;;;;;;;5017178;28;20076;-62
2023/05/13 04:00:04;;;;;;;13.95;7.53;;;;;;;;;;5011804;28;20026;-64
2023/05/13 04:02:29;;;;;;;11.60;6.68;;;;;;;;;;5011904;28;20148;-63
2023/05/13 04:04:54;;;;;;;13.48;7.00;;;;;;;;;;5014370;28;20033;-64
2023/05/13 04:07:19;;;;;;;13.18;7.07;;;;;;;;;;5011132;28;20018;-64
2023/05/13 04:09:45;;;;;;;13.10;6.55;;;;;;;;;;5011148;28;20022;-64
2023/05/13 04:12:10;;;;;;;10.82;6.82;;;;;;;;;;5011065;28;20038;-64
2023/05/13 04:14:35;;;;;;;10.43;6.65;;;;;;;;;;5011240;28;20021;-64
2023/05/13 04:17:00;;;;;;;13.18;7.20;;;;;;;;;;5010728;28;20444;-65
2023/05/13 04:19:26;;;;;;;19.23;7.07;;;;;;;;;;5010911;28;20043;-65
2023/05/13 04:21:51;;;;;;;15.52;6.97;;;;;;;;;;5011056;28;20060;-63
2023/05/13 04:24:16;;;;;;;13.23;6.55;;;;;;;;;;5022751;28;20079;-64
2023/05/13 04:26:41;;;;;;;11.65;6.50;;;;;;;;;;5010985;28;20083;-64
2023/05/13 04:29:06;;;;;;;12.70;6.50;;;;;;;;;;5020965;28;20018;-60
2023/05/13 04:31:32;;;;;;;14.57;6.60;;;;;;;;;;5010132;28;20029;-64
2023/05/13 04:33:57;;;;;;;10.57;6.60;;;;;;;;;;5019726;28;20481;-63
2023/05/13 04:36:22;;;;;;;16.58;7.05;;;;;;;;;;5011273;28;20383;-64
2023/05/13 04:38:47;;;;;;;12.70;6.38;;;;;;;;;;5010352;28;20513;-64
2023/05/13 04:41:12;;;;;;;11.48;6.55;;;;;;;;;;5010312;28;20033;-65
2023/05/13 04:43:38;;;;;;;9.80;6.40;;;;;;;;;;5022683;28;20024;-61
2023/05/13 04:46:03;;;;;;;9.18;6.10;;;;;;;;;;5010797;28;20033;-65
2023/05/13 04:48:28;;;;;;;18.42;7.38;;;;;;;;;;5010684;28;20022;-62
2023/05/13 04:50:54;;;;;;;10.68;6.35;;;;;;;;;;5010716;28;20026;-63
2023/05/13 04:53:20;;;;;;;11.23;6.82;;;;;;;;;;5010758;28;20045;-63
2023/05/13 04:55:45;;;;;;;12.57;6.75;;;;;;;;;;5010057;28;20668;-61
2023/05/13 04:58:11;;;;;;;17.33;6.68;;;;;;;;;;5011014;28;20575;-64
2023/05/13 05:00:36;;;;;;;10.10;6.38;;;;;;;;;;5009917;28;21600;-65
2023/05/13 05:03:01;;;;;;;11.27;6.20;;;;;;;;;;5009860;28;20073;-64
2023/05/13 05:05:26;;;;;;;10.27;6.13;;;;;;;;;;5012834;28;20049;-66
2023/05/13 05:07:51;;;;;;;11.25;6.28;;;;;;;;;;5018041;28;20046;-65
2023/05/13 05:10:17;;;;;;;11.85;6.38;;;;;;;;;;5011440;28;20471;-63
2023/05/13 05:12:42;;;;;;;15.30;6.07;;;;;;;;;;5019608;28;20068;-65
2023/05/13 05:15:14;;;;;;;12.82;6.72;;;;;;;;;;5010095;28;20018;-64
2023/05/13 05:17:40;;;;;;;11.52;6.78;;;;;;;;;;5010500;28;20044;-64
2023/05/13 05:20:06;;;;;;;13.63;6.75;;;;;;;;;;5009667;28;20026;-62
2023/05/13 05:22:31;;;;;;;11.10;7.10;;;;;;;;;;5011165;28;20021;-65
2023/05/13 05:24:56;;;;;;;14.77;6.10;;;;;;;;;;5011474;28;20057;-65
2023/05/13 05:27:21;;;;;;;9.20;5.88;;;;;;;;;;5009949;28;20530;-63
2023/05/13 05:29:47;;;;;;;11.55;6.05;;;;;;;;;;5022043;28;20018;-62
2023/05/13 05:32:12;;;;;;;11.07;6.50;;;;;;;;;;5012053;28;20029;-65
2023/05/13 05:34:37;;;;;;;9.50;5.97;;;;;;;;;;5009105;28;20028;-63
2023/05/13 05:37:02;;;;;;;11.55;6.78;;;;;;;;;;5008957;28;20061;-65
2023/05/13 05:39:27;;;;;;;10.32;6.38;;;;;;;;;;5009797;28;20033;-64
2023/05/13 05:41:53;;;;;;;10.10;6.18;;;;;;;;;;5013045;28;20041;-65
2023/05/13 05:44:18;;;;;;;9.48;5.45;;;;;;;;;;5023045;28;20017;-64
2023/05/13 05:46:43;;;;;;;8.77;5.72;;;;;;;;;;5009696;28;20014;-65
2023/05/13 05:49:08;;;;;;;11.10;6.45;;;;;;;;;;5010071;28;20096;-64
2023/05/13 05:51:34;;;;;;;9.68;5.95;;;;;;;;;;5010000;28;20041;-61
2023/05/13 05:53:59;;;;;;;14.50;6.93;;;;;;;;;;5019614;28;20109;-66
2023/05/13 05:56:24;;;;;;;15.32;5.95;;;;;;;;;;5015313;28;20063;-65
2023/05/13 05:58:49;;;;;;;15.25;6.60;;;;;;;;;;5013074;28;20026;-65
2023/05/13 06:01:15;;;;;;;10.70;6.30;;;;;;;;;;5013212;28;20022;-64
2023/05/13 06:03:40;;;;;;;10.80;6.15;;;;;;;;;;5011221;28;20522;-63
2023/05/13 06:06:06;;;;;;;12.38;5.80;;;;;;;;;;5010528;28;20392;-62
2023/05/13 06:08:31;;;;;;;9.75;5.78;;;;;;;;;;5010422;28;20018;-65
2023/05/13 06:10:56;;;;;;;10.60;5.78;;;;;;;;;;5021352;28;20053;-64
2023/05/13 06:13:22;;;;;;;10.98;5.78;;;;;;;;;;5010475;28;20097;-64
2023/05/13 06:15:47;;;;;;;9.93;5.45;;;;;;;;;;5010478;28;20057;-63
2023/05/13 06:18:13;;;;;;;12.48;5.68;;;;;;;;;;5011886;28;20040;-63
2023/05/13 06:20:39;;;;;;;16.73;6.07;;;;;;;;;;5016201;28;20029;-62
2023/05/13 06:23:04;;;;;;;12.23;5.00;;;;;;;;;;5020908;28;20083;-65
2023/05/13 06:25:29;;;;;;;13.85;5.00;;;;;;;;;;5017874;28;20100;-64
2023/05/13 06:27:55;;;;;;;8.23;4.65;;;;;;;;;;5010551;28;20033;-62
2023/05/13 06:30:22;;;;;;;9.52;4.43;;;;;;;;;;5003132;28;20021;-64
2023/05/13 06:32:47;;;;;;;10.18;5.70;;;;;;;;;;5015354;28;20026;-64
2023/05/13 06:35:12;;;;;;;7.55;4.55;;;;;;;;;;5019373;28;20033;-63
2023/05/13 06:37:37;;;;;;;9.60;4.95;;;;;;;;;;5014784;28;20022;-64
2023/05/13 06:40:03;;;;;;;8.45;4.53;;;;;;;;;;5014553;28;20030;-64
2023/05/13 06:42:28;;;;;;;9.25;4.57;;;;;;;;;;5020869;28;20100;-64
2023/05/13 06:44:53;;;;;;;7.25;3.90;;;;;;;;;;5022527;28;20044;-65
2023/05/13 06:47:18;;;;;;;10.25;5.00;;;;;;;;;;5013153;28;20028;-65
2023/05/13 06:49:44;;;;;;;7.45;4.15;;;;;;;;;;5013009;28;20503;-63
2023/05/13 06:52:09;;;;;;;6.90;3.63;;;;;;;;;;5013387;28;20021;-64
2023/05/13 06:54:34;;;;;;;6.22;3.50;;;;;;;;;;5013794;28;20034;-63
2023/05/13 06:57:00;;;;;;;6.93;3.08;;;;;;;;;;5012285;28;20497;-65
2023/05/13 06:59:25;;;;;;;7.55;3.83;;;;;;;;;;5013406;28;20172;-64
2023/05/13 07:01:50;;;;;;;9.23;3.60;;;;;;;;;;5027726;22;20021;-69
2023/05/13 07:04:16;;;;;;;6.00;3.22;;;;;;;;;;5046556;28;20043;-67
2023/05/13 07:06:41;;;;;;;5.15;2.80;;;;;;;;;;5051466;28;20021;-67
2023/05/13 07:09:08;;;;;;;6.93;2.92;;;;;;;;;;5050972;28;20032;-67
2023/05/13 07:11:33;;;;;;;6.47;3.10;;;;;;;;;;5054854;28;20104;-68
2023/05/13 07:13:59;;;;;;;6.60;3.38;;;;;;;;;;5050879;28;20112;-68
2023/05/13 07:16:24;;;;;;;6.43;3.65;;;;;;;;;;5050956;28;20471;-68
2023/05/13 07:18:49;;;;;;;9.80;4.75;;;;;;;;;;5050537;28;20117;-65
2023/05/13 07:21:15;;;;;;;9.88;3.88;;;;;;;;;;5051497;28;20025;-67
2023/05/13 07:23:40;;;;;;;5.88;3.47;;;;;;;;;;5050659;28;20080;-66
2023/05/13 07:26:06;;;;;;;7.22;2.95;;;;;;;;;;5051241;28;20020;-66
2023/05/13 07:28:31;;;;;;;7.30;3.35;;;;;;;;;;5052504;28;20033;-67
2023/05/13 07:30:57;;;;;;;9.38;2.85;;;;;;;;;;5050972;28;20021;-67
2023/05/13 07:33:22;;;;;;;5.57;2.72;;;;;;;;;;5048075;28;20478;-68
2023/05/13 07:35:47;;;;;;;7.90;2.90;;;;;;;;;;5055363;28;20060;-68
2023/05/13 07:38:13;;;;;;;8.65;2.58;;;;;;;;;;5050861;28;20359;-70
2023/05/13 07:40:38;;;;;;;8.63;2.85;;;;;;;;;;5042478;28;20510;-67
2023/05/13 07:43:04;;;;;;;4.78;2.70;;;;;;;;;;5052758;28;20071;-65
2023/05/13 07:45:30;;;;;;;5.47;2.67;;;;;;;;;;5052270;28;20092;-67
2023/05/13 07:47:55;;;;;;;4.82;2.40;;;;;;;;;;5044895;28;20426;-68
2023/05/13 07:50:21;;;;;;;8.45;2.30;;;;;;;;;;5051826;28;20112;-68
2023/05/13 07:52:48;;;;;;;6.72;2.63;;;;;;;;;;5050943;28;20040;-67
2023/05/13 07:55:13;;;;;;;5.07;2.72;;;;;;;;;;5051088;28;20029;-70
2023/05/13 07:57:39;;;;;;;5.65;2.78;;;;;;;;;;5051132;28;20495;-69
2023/05/13 08:00:04;;;;;;;8.23;2.60;;;;;;;;;;5036268;28;20025;-68
2023/05/13 08:02:33;;;;;;;7.57;3.08;;;;;;;;;;5050366;28;20032;-69
2023/05/13 08:04:58;;;;;;;5.30;2.47;;;;;;;;;;5050469;28;20552;-69
2023/05/13 08:07:24;;;;;;;6.00;2.60;;;;;;;;;;5051310;28;20163;-68
2023/05/13 08:09:49;;;;;;;7.60;2.63;;;;;;;;;;5053422;28;20040;-67
2023/05/13 08:12:14;;;;;;;6.15;3.05;;;;;;;;;;5050130;28;20389;-68
2023/05/13 08:14:40;;;;;;;6.97;3.00;;;;;;;;;;5050151;28;20017;-68
2023/05/13 08:17:06;;;;;;;5.07;3.10;;;;;;;;;;5051746;28;20040;-69
2023/05/13 08:19:31;;;;;;;10.48;3.92;;;;;;;;;;5055701;28;20021;-69
2023/05/13 08:21:57;;;;;;;5.70;2.65;;;;;;;;;;5058068;28;20024;-69
2023/05/13 08:24:22;;;;;;;7.70;3.28;;;;;;;;;;5053747;28;20074;-69
2023/05/13 08:26:47;;;;;;;10.07;3.25;;;;;;;;;;5038424;28;20039;-68
2023/05/13 08:29:14;;;;;;;5.55;2.70;;;;;;;;;;5058854;28;20017;-67
2023/05/13 08:31:39;;;;;;;5.28;2.83;;;;;;;;;;5048167;28;20040;-68
2023/05/13 08:34:05;;;;;;;5.75;2.80;;;;;;;;;;5048422;28;20021;-68
2023/05/13 08:36:30;;;;;;;4.97;2.65;;;;;;;;;;5050169;28;20519;-70
2023/05/13 08:38:55;;;;;;;6.03;2.90;;;;;;;;;;5049749;28;20536;-68
2023/05/13 08:41:21;;;;;;;8.18;3.58;;;;;;;;;;5053041;28;20032;-68
2023/05/13 08:43:47;;;;;;;7.05;3.25;;;;;;;;;;5061268;28;20021;-68
2023/05/13 08:46:15;;;;;;;9.05;2.97;;;;;;;;;;5049801;28;20052;-70
2023/05/13 08:48:41;;;;;;;8.25;2.65;;;;;;;;;;5049125;28;20028;-68
2023/05/13 08:51:07;;;;;;;6.63;2.80;;;;;;;;;;5053091;28;20029;-68
2023/05/13 08:53:33;;;;;;;8.50;3.10;;;;;;;;;;5049442;28;20517;-68
2023/05/13 08:55:59;;;;;;;6.35;3.10;;;;;;;;;;5049900;28;20475;-69
2023/05/13 08:58:24;;;;;;;8.30;3.13;;;;;;;;;;5049554;28;20021;-68
2023/05/13 09:00:50;;;;;;;5.38;2.72;;;;;;;;;;5049503;28;20032;-67
2023/05/13 09:03:15;;;;;;;12.07;2.97;;;;;;;;;;5030158;28;20508;-68
2023/05/13 09:05:42;;;;;;;5.72;2.60;;;;;;;;;;5049431;28;20053;-68
2023/05/13 09:08:11;;;;;;;6.97;2.70;;;;;;;;;;5049324;28;20017;-69
2023/05/13 09:10:36;;;;;;;;;;;;;;;;;;5050451;28;20105;-70
2023/05/13 09:13:04;;;;;;;6.75;2.90;;;;;;;;;;5049222;28;19908;-68
2023/05/13 09:15:30;;;;;;;7.18;3.10;;;;;;;;;;5049507;28;20608;-68
2023/05/13 09:18:00;;;;;;;9.48;2.83;;;;;;;;;;5060990;28;20060;-69
2023/05/13 09:20:26;;;;;;;5.60;2.92;;;;;;;;;;5050830;28;20052;-71
2023/05/13 09:22:57;;;;;;;5.85;3.05;;;;;;;;;;5063865;28;20106;-70
2023/05/13 09:25:25;;;;;;;5.30;2.83;;;;;;;;;;5053157;28;20021;-71
2023/05/13 09:27:51;;;;;;;5.90;3.13;;;;;;;;;;5052974;28;20021;-69
2023/05/13 09:30:18;;;;;;;8.18;3.15;;;;;;;;;;5047171;28;20104;-70
2023/05/13 09:32:43;;;;;;;9.52;3.30;;;;;;;;;;5050969;28;20446;-69
2023/05/13 09:35:10;;;;;;;4.85;2.65;;;;;;;;;;5044622;28;20044;-69
2023/05/13 09:37:35;;;;;;;8.68;3.40;;;;;;;;;;5050937;28;20429;-68
2023/05/13 09:40:01;;;;;;;9.27;2.83;;;;;;;;;;5055158;28;20021;-69
2023/05/13 09:42:26;;;;;;;12.50;2.80;;;;;;;;;;5053086;28;20082;-68
2023/05/13 09:44:52;;;;;;;5.88;3.10;;;;;;;;;;5057484;28;20594;-70
2023/05/13 09:47:17;;;;;;;8.98;2.70;;;;;;;;;;5048559;28;20063;-68
2023/05/13 09:49:43;;;;;;;7.13;2.78;;;;;;;;;;5031560;28;20422;-68
2023/05/13 09:52:11;;;;;;;8.38;3.55;;;;;;;;;;5047522;28;20029;-71
2023/05/13 09:54:37;;;;;;;9.57;3.10;;;;;;;;;;5051588;28;20029;-67
2023/05/13 09:57:03;;;;;;;6.25;2.92;;;;;;;;;;5052483;28;20070;-68
2023/05/13 09:59:32;;;;;;;5.50;3.00;;;;;;;;;;5053816;28;20063;-69
2023/05/13 10:01:59;;;;;;;9.93;3.25;;;;;;;;;;5048070;28;20048;-69
2023/05/13 10:04:25;;;;;;;8.27;3.10;;;;;;;;;;5033096;28;20029;-69
2023/05/13 10:06:50;;;;;;;8.43;3.30;;;;;;;;;;5062342;28;20028;-67
2023/05/13 10:09:15;;;;;;;10.27;2.83;;;;;;;;;;5064441;28;20582;-70
2023/05/13 10:11:43;;;;;;;6.80;3.55;;;;;;;;;;5065712;28;20028;-68
2023/05/13 10:14:09;;;;;;;5.47;2.70;;;;;;;;;;5046304;28;20051;-70
2023/05/13 10:16:34;;;;;;;8.90;2.70;;;;;;;;;;5055040;28;20292;-71
2023/05/13 10:19:00;;;;;;;6.20;3.10;;;;;;;;;;5052764;28;20021;-67
2023/05/13 10:21:26;;;;;;;5.68;2.83;;;;;;;;;;5052985;28;20025;-70
2023/05/13 10:23:51;;;;;;;16.02;3.10;;;;;;;;;;5057840;28;20518;-68
2023/05/13 10:26:17;;;;;;;5.18;2.53;;;;;;;;;;5054610;28;20112;-70
2023/05/13 10:28:44;;;;;;;9.73;3.17;;;;;;;;;;5054402;28;20386;-73
2023/05/13 10:31:09;;;;;;;5.47;2.53;;;;;;;;;;5052760;28;20051;-72
2023/05/13 10:33:34;;;;;;;6.45;2.83;;;;;;;;;;5049984;28;20478;-68
2023/05/13 10:36:25;;;;;;;13.68;2.88;;;;;;;;;;5052086;28;20025;-68
2023/05/13 10:38:56;;;;;;;5.88;2.75;;;;;;;;;;5052817;28;20410;-70
2023/05/13 10:41:33;;;;;;;8.70;3.10;;;;;;;;;;5048849;28;20026;-69
2023/05/13 10:43:58;;;;;;;9.25;2.75;;;;;;;;;;5048070;28;20035;-74
2023/05/13 10:46:24;;;;;;;7.20;2.90;;;;;;;;;;5050854;28;20021;-68
2023/05/13 10:48:53;;;;;;;6.72;2.92;;;;;;;;;;5032895;28;20017;-69
2023/05/13 10:51:21;;;;;;;5.90;2.75;;;;;;;;;;5031802;28;20389;-70
2023/05/13 10:53:48;;;;;;;9.30;3.10;;;;;;;;;;5049898;28;20027;-73
2023/05/13 10:56:13;;;;;;;6.28;3.42;;;;;;;;;;5049550;28;20040;-72
2023/05/13 10:58:39;;;;;;;6.18;2.88;;;;;;;;;;5050927;28;20029;-71
2023/05/13 11:01:11;;;;;;;10.45;3.17;;;;;;;;;;5048127;28;20031;-76
2023/05/13 11:03:38;;;;;;;7.90;2.90;;;;;;;;;;5046688;28;20060;-72
2023/05/13 11:06:18;;;;;;;5.95;3.13;;;;;;;;;;5051254;28;20017;-74
2023/05/13 11:08:44;;;;;;;5.05;2.45;;;;;;;;;;5049406;28;20059;-75
2023/05/13 11:11:21;;;;;;;9.55;3.00;;;;;;;;;;5046705;28;20025;-74
2023/05/13 11:13:53;;;;;;;7.57;3.05;;;;;;;;;;5046272;28;20025;-72
2023/05/13 11:16:19;;;;;;;6.95;3.35;;;;;;;;;;5029122;28;20025;-74
2023/05/13 11:18:45;;;;;;;9.32;3.60;;;;;;;;;;5048109;28;20044;-73
2023/05/13 11:21:10;;;;;;;6.28;3.13;;;;;;;;;;5049801;28;20194;-72
2023/05/13 11:23:50;;;;;;;8.68;2.90;;;;;;;;;;5030148;28;20029;-71
2023/05/13 11:26:16;;;;;;;8.15;3.00;;;;;;;;;;5048662;28;20059;-71
2023/05/13 11:28:58;;;;;;;8.57;2.65;;;;;;;;;;5050279;28;20520;-72
2023/05/13 11:31:25;;;;;;;8.50;3.25;;;;;;;;;;5046903;28;20025;-72
2023/05/13 11:34:08;;;;;;;14.02;2.88;;;;;;;;;;5029188;28;20085;-73
2023/05/13 11:36:33;;;;;;;6.35;3.30;;;;;;;;;;5048096;28;20028;-73
2023/05/13 11:39:06;;;;;;;11.55;3.35;;;;;;;;;;5047942;28;20021;-75
2023/05/13 11:41:31;;;;;;;6.07;2.80;;;;;;;;;;5045322;28;20502;-68
2023/05/13 11:43:58;;;;;;;10.85;2.40;;;;;;;;;;5049847;28;20078;-72
2023/05/13 11:46:24;;;;;;;8.82;2.80;;;;;;;;;;5057858;28;20074;-74
2023/05/13 11:48:50;;;;;;;5.75;2.28;;;;;;;;;;5052193;28;20827;-71
2023/05/13 11:51:17;;;;;;;10.02;2.72;;;;;;;;;;5032773;28;20060;-72
2023/05/13 11:53:42;;;;;;;6.88;2.40;;;;;;;;;;5032256;28;20024;-71
2023/05/13 11:56:11;;;;;;;6.80;2.78;;;;;;;;;;5050117;28;20487;-71
2023/05/13 11:58:36;;;;;;;5.32;2.53;;;;;;;;;;5054079;28;20421;-71
2023/05/13 12:01:02;;;;;;;6.70;2.72;;;;;;;;;;5059833;28;20025;-70
2023/05/13 12:03:27;;;;;;;9.85;2.83;;;;;;;;;;5049591;28;20021;-73
2023/05/13 12:06:02;;;;;;;9.77;2.45;;;;;;;;;;5049732;28;20020;-70
2023/05/13 12:08:27;;;;;;;8.65;2.75;;;;;;;;;;5050870;28;20066;-72
2023/05/13 12:10:52;;;;;;;14.27;2.50;;;;;;;;;;5055363;28;20032;-72
2023/05/13 12:13:19;;;;;;;6.38;2.60;;;;;;;;;;5049878;28;20024;-69
2023/05/13 12:15:44;;;;;;;8.73;2.33;;;;;;;;;;5050066;28;20104;-72
2023/05/13 12:18:09;;;;;;;7.50;3.10;;;;;;;;;;5050776;28;20096;-72
2023/05/13 12:20:35;;;;;;;7.55;2.95;;;;;;;;;;5049249;28;20505;-70
2023/05/13 12:23:00;;;;;;;7.32;2.63;;;;;;;;;;5050272;28;20424;-71
2023/05/13 12:25:45;;;;;;;18.67;2.55;;;;;;;;;;5050204;28;20021;-71
2023/05/13 12:28:20;;;;;;;7.65;2.53;;;;;;;;;;5056100;28;20025;-71
2023/05/13 12:30:53;;;;;;;5.38;2.30;;;;;;;;;;5053973;28;20021;-69
2023/05/13 12:33:19;;;;;;;6.40;2.50;;;;;;;;;;5044793;28;20025;-69
2023/05/13 12:35:47;;;;;;;5.55;2.55;;;;;;;;;;5049512;28;20490;-70
2023/05/13 12:38:16;;;;;;;7.03;2.58;;;;;;;;;;5049651;28;20132;-69
2023/05/13 12:40:45;;;;;;;4.82;2.47;;;;;;;;;;5031817;28;20032;-70
2023/05/13 12:43:12;;;;;;;4.65;2.40;;;;;;;;;;5057519;28;20017;-73
2023/05/13 12:45:38;;;;;;;4.72;2.00;;;;;;;;;;5063670;28;20017;-71
2023/05/13 12:48:03;;;;;;;10.07;2.42;;;;;;;;;;5049675;28;20387;-69
2023/05/13 12:50:29;;;;;;;12.20;2.83;;;;;;;;;;5049370;28;20112;-70
2023/05/13 12:52:56;;;;;;;4.57;2.00;;;;;;;;;;5050222;28;20478;-70
2023/05/13 12:55:21;;;;;;;5.50;1.90;;;;;;;;;;5045323;28;20013;-72
2023/05/13 12:57:58;;;;;;;7.45;2.33;;;;;;;;;;5049638;28;20066;-68
2023/05/13 13:00:23;;;;;;;6.95;2.20;;;;;;;;;;5049581;28;20514;-71
2023/05/13 13:02:49;;;;;;;6.88;2.60;;;;;;;;;;5058393;22;21091;-68
2023/05/13 13:05:14;;;;;;;6.18;2.30;;;;;;;;;;5028741;28;20028;-68
2023/05/13 13:07:41;;;;;;;3.90;2.08;;;;;;;;;;5029442;28;20493;-69
2023/05/13 13:10:06;;;;;;;5.70;1.92;;;;;;;;;;5014287;28;20014;-69
2023/05/13 13:12:32;;;;;;;4.20;2.20;;;;;;;;;;5029905;28;20392;-68
2023/05/13 13:14:57;;;;;;;3.75;2.10;;;;;;;;;;5029480;28;20057;-68
2023/05/13 13:17:22;;;;;;;5.32;2.25;;;;;;;;;;5030027;28;20049;-69
2023/05/13 13:19:48;;;;;;;4.28;2.25;;;;;;;;;;5012362;28;20104;-68
2023/05/13 13:22:13;;;;;;;5.78;2.40;;;;;;;;;;5029582;28;20025;-67
2023/05/13 13:24:38;;;;;;;6.00;2.33;;;;;;;;;;5029579;28;20052;-68
2023/05/13 13:27:04;;;;;;;7.78;2.63;;;;;;;;;;5028437;28;20018;-67
2023/05/13 13:29:29;;;;;;;9.20;2.53;;;;;;;;;;5031282;28;20018;-68
2023/05/13 13:31:54;;;;;;;8.55;2.75;;;;;;;;;;5029332;28;20024;-67
2023/05/13 13:34:19;;;;;;;7.88;2.78;;;;;;;;;;5028923;28;20029;-69
2023/05/13 13:36:45;;;;;;;7.70;2.50;;;;;;;;;;5030223;28;20024;-69
2023/05/13 13:39:10;;;;;;;8.27;2.70;;;;;;;;;;5033527;28;20028;-68
2023/05/13 13:41:36;;;;;;;5.07;2.47;;;;;;;;;;5033402;28;20398;-69
2023/05/13 13:44:01;;;;;;;8.98;2.63;;;;;;;;;;5042865;28;20413;-69
2023/05/13 13:46:26;;;;;;;5.53;2.70;;;;;;;;;;5039253;28;20024;-69
2023/05/13 13:48:51;;;;;;;8.73;2.20;;;;;;;;;;5033134;28;20021;-68
2023/05/13 13:51:16;;;;;;;6.90;2.17;;;;;;;;;;5033390;28;20648;-69
2023/05/13 13:53:42;;;;;;;8.10;2.13;;;;;;;;;;5032472;28;20013;-68
2023/05/13 13:56:07;;;;;;;7.25;2.45;;;;;;;;;;5033225;28;20651;-70
2023/05/13 13:58:32;;;;;;;4.70;2.25;;;;;;;;;;5033701;28;20465;-70
2023/05/13 14:00:57;;;;;;;7.80;2.65;;;;;;;;;;5032424;28;20374;-69
2023/05/13 14:03:23;;;;;;;8.48;2.03;;;;;;;;;;5032284;28;20037;-68
2023/05/13 14:05:48;;;;;;;6.85;2.40;;;;;;;;;;5014857;28;20041;-69
2023/05/13 14:08:14;;;;;;;6.43;2.47;;;;;;;;;;5032632;28;20030;-68
2023/05/13 14:10:39;;;;;;;8.43;2.65;;;;;;;;;;4999350;28;20083;-68
2023/05/13 14:13:05;;;;;;;5.05;2.10;;;;;;;;;;5015035;28;20448;-68
2023/05/13 14:15:30;;;;;;;9.55;2.40;;;;;;;;;;5032549;28;20017;-66
2023/05/13 14:17:56;;;;;;;10.18;2.55;;;;;;;;;;5032640;28;20029;-68
2023/05/13 14:20:22;;;;;;;6.43;2.45;;;;;;;;;;5033136;28;20095;-68
2023/05/13 14:22:47;;;;;;;5.57;2.00;;;;;;;;;;5015369;28;20075;-69
2023/05/13 14:25:13;;;;;;;7.43;2.08;;;;;;;;;;5015162;28;20026;-68
2023/05/13 14:27:38;;;;;;;5.18;2.40;;;;;;;;;;5028570;28;20014;-69
2023/05/13 14:30:04;;;;;;;7.13;2.42;;;;;;;;;;5038680;28;20013;-68
2023/05/13 14:32:29;;;;;;;6.00;2.10;;;;;;;;;;5032924;28;20029;-68